Time;durP1;ratioP1;P1;durP2;ratioP2;P2;SDS_P1;SDS_P2;PMS_P1;PMS_P2;Temp;Humidity;BMP_temperature;BMP_pressure;BME280_temperature;BME280_humidity;BME280_pressure;Samples;Min_cycle;Max_cycle;Signal;HPM_P1;HPM_P2
2022/04/29 00:00:18;;;;;;;6.03;4.72;;;;;;;;;;5074219;28;20025;-79
2022/04/29 00:02:45;;;;;;;10.20;4.65;;;;;;;;;;5052026;28;20029;-79
2022/04/29 00:05:11;;;;;;;7.10;4.35;;;;;;;;;;5072470;28;20543;-79
2022/04/29 00:07:39;;;;;;;6.03;4.60;;;;;;;;;;5068642;28;20048;-79
2022/04/29 00:10:12;;;;;;;7.28;4.75;;;;;;;;;;5067134;28;20028;-79
2022/04/29 00:12:41;;;;;;;6.88;4.60;;;;;;;;;;5037803;28;20035;-78
2022/04/29 00:15:08;;;;;;;8.43;4.82;;;;;;;;;;5071532;28;20020;-78
2022/04/29 00:17:33;;;;;;;7.68;5.45;;;;;;;;;;5071371;28;20028;-79
2022/04/29 00:19:58;;;;;;;8.57;5.25;;;;;;;;;;5072368;28;20028;-80
2022/04/29 00:22:24;;;;;;;6.30;4.50;;;;;;;;;;5074334;28;20032;-81
2022/04/29 00:24:49;;;;;;;7.63;5.50;;;;;;;;;;5056675;28;20044;-79
2022/04/29 00:27:15;;;;;;;8.35;5.25;;;;;;;;;;5075693;28;20048;-82
2022/04/29 00:29:41;;;;;;;6.95;5.25;;;;;;;;;;5087070;28;20027;-80
2022/04/29 00:32:06;;;;;;;7.47;5.68;;;;;;;;;;5106148;28;20158;-80
2022/04/29 00:34:32;;;;;;;6.85;5.15;;;;;;;;;;5070968;28;20028;-79
2022/04/29 00:36:57;;;;;;;8.57;5.63;;;;;;;;;;5088346;28;20162;-80
2022/04/29 00:39:23;;;;;;;7.30;5.25;;;;;;;;;;5068870;28;20019;-80
2022/04/29 00:41:49;;;;;;;9.73;5.60;;;;;;;;;;5089265;28;20036;-78
2022/04/29 00:44:14;;;;;;;7.72;4.93;;;;;;;;;;5077690;28;20112;-80
2022/04/29 00:46:42;;;;;;;7.85;5.00;;;;;;;;;;5085043;28;20170;-80
2022/04/29 00:49:10;;;;;;;9.00;6.07;;;;;;;;;;5091967;28;20021;-77
2022/04/29 00:51:36;;;;;;;7.57;6.10;;;;;;;;;;5107193;27;20008;-78
2022/04/29 00:54:03;;;;;;;8.15;5.13;;;;;;;;;;5081447;28;20039;-81
2022/04/29 00:56:31;;;;;;;8.32;5.53;;;;;;;;;;5081937;28;20040;-80
2022/04/29 00:59:06;;;;;;;9.27;5.68;;;;;;;;;;5059638;28;20024;-79
2022/04/29 01:01:34;;;;;;;9.43;5.63;;;;;;;;;;5084991;28;20028;-79
2022/04/29 01:04:02;;;;;;;6.75;5.10;;;;;;;;;;5077572;28;20020;-79
2022/04/29 01:06:27;;;;;;;7.72;5.40;;;;;;;;;;5075762;28;20029;-80
2022/04/29 01:08:53;;;;;;;8.80;5.10;;;;;;;;;;5083145;28;20040;-79
2022/04/29 01:11:22;;;;;;;7.93;5.35;;;;;;;;;;5036151;28;20033;-78
2022/04/29 01:13:49;;;;;;;9.88;5.97;;;;;;;;;;5064615;28;20028;-78
2022/04/29 01:16:15;;;;;;;9.93;5.53;;;;;;;;;;5076969;28;20033;-79
2022/04/29 01:18:41;;;;;;;12.05;5.40;;;;;;;;;;5061555;28;20020;-79
2022/04/29 01:21:06;;;;;;;9.05;5.65;;;;;;;;;;5079337;28;20021;-79
2022/04/29 01:23:33;;;;;;;8.77;5.32;;;;;;;;;;5078165;28;20036;-80
2022/04/29 01:25:58;;;;;;;7.72;5.57;;;;;;;;;;5077300;28;20028;-80
2022/04/29 01:28:25;;;;;;;8.90;5.40;;;;;;;;;;5077610;28;20017;-79
2022/04/29 01:30:51;;;;;;;8.88;5.55;;;;;;;;;;5088447;28;20025;-79
2022/04/29 01:33:21;;;;;;;7.57;5.65;;;;;;;;;;5072945;28;20035;-81
2022/04/29 01:35:46;;;;;;;6.50;5.07;;;;;;;;;;5071036;28;20020;-79
2022/04/29 01:38:12;;;;;;;7.43;5.07;;;;;;;;;;5065856;28;20016;-79
2022/04/29 01:40:37;;;;;;;6.32;5.15;;;;;;;;;;5077791;28;20028;-80
2022/04/29 01:43:02;;;;;;;7.55;5.00;;;;;;;;;;5077880;28;20025;-80
2022/04/29 01:45:28;;;;;;;9.18;5.28;;;;;;;;;;5069373;28;20303;-79
2022/04/29 01:47:54;;;;;;;10.07;5.80;;;;;;;;;;5061923;28;20471;-78
2022/04/29 01:50:19;;;;;;;9.30;5.72;;;;;;;;;;5067337;28;20102;-78
2022/04/29 01:52:45;;;;;;;9.82;6.03;;;;;;;;;;5086046;28;20035;-80
2022/04/29 01:55:10;;;;;;;9.38;5.55;;;;;;;;;;5083764;28;20017;-79
2022/04/29 01:57:36;;;;;;;8.23;5.20;;;;;;;;;;5084823;28;20039;-79
2022/04/29 02:00:03;;;;;;;7.35;5.40;;;;;;;;;;5091625;28;20280;-80
2022/04/29 02:02:28;;;;;;;9.73;6.28;;;;;;;;;;5085229;28;20028;-79
2022/04/29 02:04:54;;;;;;;11.45;5.72;;;;;;;;;;5093371;28;20073;-79
2022/04/29 02:07:19;;;;;;;7.90;5.55;;;;;;;;;;5079949;28;20149;-79
2022/04/29 02:09:44;;;;;;;8.15;5.40;;;;;;;;;;5087479;28;20119;-80
2022/04/29 02:12:11;;;;;;;7.28;5.53;;;;;;;;;;5100213;28;20074;-82
2022/04/29 02:14:39;;;;;;;7.60;5.50;;;;;;;;;;5084840;28;20021;-82
2022/04/29 02:17:06;;;;;;;8.60;5.70;;;;;;;;;;5079745;28;20055;-79
2022/04/29 02:19:33;;;;;;;7.10;5.65;;;;;;;;;;5078186;28;20111;-79
2022/04/29 02:21:59;;;;;;;8.68;6.30;;;;;;;;;;5085562;28;20055;-81
2022/04/29 02:24:24;;;;;;;7.55;5.47;;;;;;;;;;5088932;28;20020;-80
2022/04/29 02:26:49;;;;;;;8.93;6.50;;;;;;;;;;5081841;28;20108;-80
2022/04/29 02:29:15;;;;;;;8.13;6.05;;;;;;;;;;5089701;28;20020;-78
2022/04/29 02:31:41;;;;;;;7.85;5.65;;;;;;;;;;5082747;28;20113;-80
2022/04/29 02:34:06;;;;;;;8.57;5.90;;;;;;;;;;5079823;28;20395;-78
2022/04/29 02:36:31;;;;;;;8.80;6.43;;;;;;;;;;5082493;28;20028;-78
2022/04/29 02:38:57;;;;;;;13.02;7.40;;;;;;;;;;5077024;28;20027;-81
2022/04/29 02:41:23;;;;;;;8.30;6.15;;;;;;;;;;5060777;28;20119;-78
2022/04/29 02:43:48;;;;;;;11.18;6.53;;;;;;;;;;5077822;28;20128;-80
2022/04/29 02:46:13;;;;;;;10.38;7.18;;;;;;;;;;5077844;28;20024;-78
2022/04/29 02:48:39;;;;;;;8.70;6.25;;;;;;;;;;5082346;28;20036;-78
2022/04/29 02:51:05;;;;;;;8.18;6.38;;;;;;;;;;5077099;28;20031;-79
2022/04/29 02:53:31;;;;;;;20.15;7.43;;;;;;;;;;5076093;28;20051;-78
2022/04/29 02:55:56;;;;;;;9.85;6.60;;;;;;;;;;5080331;28;20028;-82
2022/04/29 02:58:22;;;;;;;12.52;7.15;;;;;;;;;;5087513;28;20359;-79
2022/04/29 03:00:47;;;;;;;10.80;6.85;;;;;;;;;;5075005;28;20028;-79
2022/04/29 03:03:12;;;;;;;7.07;5.65;;;;;;;;;;5088702;28;20062;-77
2022/04/29 03:05:39;;;;;;;9.55;6.00;;;;;;;;;;5088091;28;20043;-78
2022/04/29 03:08:05;;;;;;;9.48;6.38;;;;;;;;;;5080181;28;20028;-81
2022/04/29 03:10:30;;;;;;;10.82;6.85;;;;;;;;;;5081276;28;20048;-80
2022/04/29 03:12:55;;;;;;;9.52;6.65;;;;;;;;;;5078928;28;20380;-78
2022/04/29 03:15:25;;;;;;;8.35;6.30;;;;;;;;;;5075080;28;20471;-79
2022/04/29 03:20:37;;;;;;;9.32;6.35;;;;;;;;;;5081953;28;20051;-78
2022/04/29 03:23:04;;;;;;;10.02;6.35;;;;;;;;;;5086884;28;20021;-80
2022/04/29 03:25:29;;;;;;;12.93;6.88;;;;;;;;;;5075534;28;20025;-79
2022/04/29 03:27:54;;;;;;;8.35;6.57;;;;;;;;;;5083457;28;20059;-78
2022/04/29 03:30:20;;;;;;;8.32;6.20;;;;;;;;;;5064398;28;20039;-79
2022/04/29 03:32:56;;;;;;;9.20;6.75;;;;;;;;;;5073595;28;20020;-79
2022/04/29 03:35:22;;;;;;;8.95;5.85;;;;;;;;;;5078327;28;20078;-79
2022/04/29 03:37:52;;;;;;;8.90;6.30;;;;;;;;;;5093164;28;20110;-79
2022/04/29 03:40:22;;;;;;;7.90;6.00;;;;;;;;;;5095708;28;20035;-79
2022/04/29 03:42:53;;;;;;;9.23;6.63;;;;;;;;;;5058344;28;20560;-79
2022/04/29 03:45:24;;;;;;;10.88;6.80;;;;;;;;;;5079816;28;20032;-79
2022/04/29 03:47:50;;;;;;;9.05;6.50;;;;;;;;;;5077832;28;20574;-78
2022/04/29 03:50:16;;;;;;;10.00;6.30;;;;;;;;;;5059357;28;20239;-79
2022/04/29 03:52:49;;;;;;;10.18;6.90;;;;;;;;;;5079530;28;20036;-81
2022/04/29 03:55:15;;;;;;;8.10;6.70;;;;;;;;;;5081553;28;20052;-80
2022/04/29 03:57:41;;;;;;;11.88;6.85;;;;;;;;;;5076983;28;20028;-80
2022/04/29 04:00:08;;;;;;;12.00;6.97;;;;;;;;;;5040824;28;1109265;-79
2022/04/29 04:02:34;;;;;;;7.45;5.95;;;;;;;;;;5078926;28;20028;-78
2022/04/29 04:04:59;;;;;;;10.13;6.60;;;;;;;;;;5078143;28;20035;-79
2022/04/29 04:07:25;;;;;;;8.07;6.30;;;;;;;;;;5084938;28;20030;-79
2022/04/29 04:09:50;;;;;;;11.07;6.82;;;;;;;;;;5083252;28;20040;-80
2022/04/29 04:12:16;;;;;;;8.60;6.25;;;;;;;;;;5080412;28;20052;-79
2022/04/29 04:14:42;;;;;;;7.30;5.55;;;;;;;;;;5078796;28;20028;-79
2022/04/29 04:17:07;;;;;;;10.27;6.30;;;;;;;;;;5063557;28;20089;-79
2022/04/29 04:19:34;;;;;;;13.63;6.85;;;;;;;;;;5080093;28;20024;-79
2022/04/29 04:21:59;;;;;;;7.30;5.57;;;;;;;;;;5077420;28;20024;-78
2022/04/29 04:24:24;;;;;;;11.05;6.43;;;;;;;;;;5077325;28;20043;-79
2022/04/29 04:26:50;;;;;;;9.90;6.80;;;;;;;;;;5084431;28;20029;-81
2022/04/29 04:29:15;;;;;;;10.07;6.90;;;;;;;;;;5086117;28;20107;-79
2022/04/29 04:31:40;;;;;;;13.02;6.90;;;;;;;;;;5079543;28;20467;-79
2022/04/29 04:36:53;;;;;;;9.13;6.68;;;;;;;;;;5072463;28;20032;-81
2022/04/29 04:39:19;;;;;;;10.15;6.10;;;;;;;;;;5060250;28;20020;-80
2022/04/29 04:41:44;;;;;;;11.95;6.88;;;;;;;;;;5076915;28;20084;-81
2022/04/29 04:44:10;;;;;;;10.05;7.03;;;;;;;;;;5096993;28;20028;-78
2022/04/29 04:46:36;;;;;;;12.48;7.22;;;;;;;;;;5075842;28;20040;-78
2022/04/29 04:49:01;;;;;;;8.75;6.85;;;;;;;;;;5080961;28;20020;-80
2022/04/29 04:51:27;;;;;;;10.32;6.65;;;;;;;;;;5077981;28;20034;-80
2022/04/29 04:53:52;;;;;;;11.38;6.97;;;;;;;;;;5080315;28;20056;-78
2022/04/29 04:56:17;;;;;;;11.85;7.05;;;;;;;;;;5076100;28;20032;-79
2022/04/29 04:58:43;;;;;;;11.93;7.22;;;;;;;;;;5075733;28;20422;-80
2022/04/29 05:01:08;;;;;;;12.85;7.32;;;;;;;;;;5081518;28;20383;-80
2022/04/29 05:03:33;;;;;;;9.35;7.25;;;;;;;;;;5062725;28;20032;-80
2022/04/29 05:05:59;;;;;;;9.55;7.38;;;;;;;;;;5070416;28;20073;-80
2022/04/29 05:08:24;;;;;;;9.50;6.75;;;;;;;;;;5080132;28;20083;-80
2022/04/29 05:10:50;;;;;;;19.15;7.05;;;;;;;;;;5080600;28;20032;-80
2022/04/29 05:13:15;;;;;;;15.43;6.95;;;;;;;;;;5084246;28;20394;-80
2022/04/29 05:15:42;;;;;;;10.35;6.90;;;;;;;;;;5100252;28;20058;-82
2022/04/29 05:18:08;;;;;;;21.98;6.97;;;;;;;;;;5089199;28;20107;-81
2022/04/29 05:20:34;;;;;;;26.75;7.07;;;;;;;;;;5089569;28;20017;-82
2022/04/29 05:22:59;;;;;;;14.43;6.90;;;;;;;;;;5061171;28;20036;-81
2022/04/29 05:25:25;;;;;;;11.30;6.15;;;;;;;;;;5058534;28;20490;-80
2022/04/29 05:27:50;;;;;;;11.93;7.65;;;;;;;;;;5080752;28;20036;-81
2022/04/29 05:30:15;;;;;;;11.63;6.88;;;;;;;;;;5086344;28;20070;-79
2022/04/29 05:32:41;;;;;;;10.57;6.95;;;;;;;;;;5079172;28;20063;-81
2022/04/29 05:35:08;;;;;;;12.63;7.15;;;;;;;;;;5061177;28;20081;-82
2022/04/29 05:37:34;;;;;;;12.35;6.75;;;;;;;;;;5088560;28;20066;-80
2022/04/29 05:42:44;;;;;;;9.15;6.95;;;;;;;;;;5066119;28;20044;-81
2022/04/29 05:45:09;;;;;;;11.35;7.85;;;;;;;;;;5077460;28;20036;-82
2022/04/29 05:47:35;;;;;;;12.35;7.30;;;;;;;;;;5078992;28;20024;-82
2022/04/29 05:50:00;;;;;;;11.27;6.88;;;;;;;;;;5058921;28;20482;-80
2022/04/29 05:52:26;;;;;;;10.98;7.03;;;;;;;;;;5077553;28;20315;-81
2022/04/29 05:54:51;;;;;;;14.20;8.23;;;;;;;;;;5077080;28;20020;-82
2022/04/29 05:57:17;;;;;;;10.13;7.30;;;;;;;;;;5082153;28;20062;-82
2022/04/29 05:59:42;;;;;;;14.48;7.45;;;;;;;;;;5072568;28;20044;-80
2022/04/29 06:02:08;;;;;;;14.20;8.05;;;;;;;;;;5084431;28;20023;-81
2022/04/29 06:04:34;;;;;;;10.68;7.40;;;;;;;;;;5062295;28;20030;-81
2022/04/29 06:06:59;;;;;;;10.05;7.05;;;;;;;;;;5086331;28;20118;-80
2022/04/29 06:09:28;;;;;;;15.43;7.97;;;;;;;;;;5075149;28;20284;-81
2022/04/29 06:11:54;;;;;;;11.45;7.32;;;;;;;;;;5057500;28;20032;-79
2022/04/29 06:14:19;;;;;;;8.98;6.40;;;;;;;;;;5062021;28;20028;-79
2022/04/29 06:16:46;;;;;;;12.65;7.65;;;;;;;;;;5088602;28;20035;-80
2022/04/29 06:19:12;;;;;;;15.60;7.25;;;;;;;;;;5058950;28;20482;-79
2022/04/29 06:21:38;;;;;;;15.48;8.02;;;;;;;;;;5075028;28;20028;-81
2022/04/29 06:24:04;;;;;;;15.43;8.45;;;;;;;;;;5057664;28;20024;-79
2022/04/29 06:26:30;;;;;;;13.50;7.75;;;;;;;;;;5078812;28;20032;-81
2022/04/29 06:28:55;;;;;;;10.52;7.78;;;;;;;;;;5070085;28;20123;-82
2022/04/29 06:31:20;;;;;;;11.35;7.53;;;;;;;;;;5078729;28;20032;-83
2022/04/29 06:33:46;;;;;;;12.73;7.35;;;;;;;;;;5076379;28;20032;-80
2022/04/29 06:36:12;;;;;;;18.05;7.85;;;;;;;;;;5078259;28;20028;-80
2022/04/29 06:38:37;;;;;;;12.73;7.70;;;;;;;;;;5082791;28;20070;-80
2022/04/29 06:41:02;;;;;;;11.90;7.45;;;;;;;;;;5076855;28;20024;-81
2022/04/29 06:43:31;;;;;;;16.20;7.25;;;;;;;;;;5077770;28;20043;-80
2022/04/29 06:45:56;;;;;;;12.43;7.25;;;;;;;;;;5078763;28;20078;-80
2022/04/29 06:48:22;;;;;;;9.57;6.80;;;;;;;;;;5079110;28;20028;-80
2022/04/29 06:50:47;;;;;;;8.70;6.28;;;;;;;;;;5092539;28;20016;-84
2022/04/29 06:53:12;;;;;;;15.10;6.75;;;;;;;;;;5095335;28;20024;-81
2022/04/29 06:55:39;;;;;;;11.88;8.38;;;;;;;;;;5087210;28;20040;-83
2022/04/29 06:58:05;;;;;;;11.25;6.55;;;;;;;;;;5086331;28;20028;-80
2022/04/29 07:00:31;;;;;;;17.15;6.03;;;;;;;;;;5081893;28;20024;-81
2022/04/29 07:02:57;;;;;;;14.65;5.78;;;;;;;;;;5083135;28;20051;-81
2022/04/29 07:05:23;;;;;;;17.20;6.57;;;;;;;;;;5098126;28;20036;-82
2022/04/29 07:07:50;;;;;;;7.78;5.65;;;;;;;;;;5100740;28;20645;-81
2022/04/29 07:10:16;;;;;;;9.05;6.28;;;;;;;;;;5090538;28;20035;-81
2022/04/29 07:12:48;;;;;;;10.85;6.47;;;;;;;;;;5090043;28;20024;-80
2022/04/29 07:15:14;;;;;;;12.05;6.78;;;;;;;;;;5081900;28;20048;-81
2022/04/29 07:17:41;;;;;;;13.00;6.70;;;;;;;;;;5062000;28;20032;-82
2022/04/29 07:20:08;;;;;;;12.20;6.00;;;;;;;;;;5078811;28;20020;-83
2022/04/29 07:22:33;;;;;;;10.25;6.10;;;;;;;;;;5080335;28;20039;-82
2022/04/29 07:24:59;;;;;;;8.25;6.07;;;;;;;;;;5078629;28;20029;-81
2022/04/29 07:27:28;;;;;;;9.00;6.25;;;;;;;;;;5079975;28;20112;-81
2022/04/29 07:29:53;;;;;;;7.88;6.10;;;;;;;;;;5089294;28;20031;-82
2022/04/29 07:32:19;;;;;;;8.93;6.40;;;;;;;;;;5080794;28;20099;-81
2022/04/29 07:42:56;;;;;;;9.23;6.75;;;;;;;;;;5066924;28;20035;-81
2022/04/29 07:45:21;;;;;;;12.52;6.72;;;;;;;;;;5080703;28;20020;-82
2022/04/29 07:47:47;;;;;;;15.27;6.90;;;;;;;;;;5066582;28;20031;-84
2022/04/29 07:50:13;;;;;;;11.05;6.40;;;;;;;;;;5084193;28;20410;-82
2022/04/29 07:52:38;;;;;;;10.95;6.03;;;;;;;;;;5079741;28;20055;-80
2022/04/29 07:55:05;;;;;;;10.07;6.22;;;;;;;;;;5083690;28;20159;-80
2022/04/29 07:57:30;;;;;;;8.85;6.25;;;;;;;;;;5079424;28;20027;-80
2022/04/29 07:59:55;;;;;;;13.40;6.50;;;;;;;;;;5082758;28;20028;-81
2022/04/29 08:02:21;;;;;;;8.80;6.30;;;;;;;;;;5089035;28;20021;-82
2022/04/29 08:04:46;;;;;;;11.60;6.70;;;;;;;;;;5064267;28;20060;-80
2022/04/29 08:07:12;;;;;;;16.23;6.50;;;;;;;;;;5084989;28;20025;-78
2022/04/29 08:09:38;;;;;;;9.32;6.45;;;;;;;;;;5076868;28;20469;-80
2022/04/29 08:12:04;;;;;;;12.60;6.82;;;;;;;;;;5078239;28;20214;-79
2022/04/29 08:14:31;;;;;;;8.60;5.90;;;;;;;;;;5078268;28;20024;-80
2022/04/29 08:16:56;;;;;;;10.55;6.05;;;;;;;;;;5084169;28;20013;-80
2022/04/29 08:19:23;;;;;;;10.13;6.10;;;;;;;;;;5084941;28;20031;-82
2022/04/29 08:21:49;;;;;;;14.18;6.40;;;;;;;;;;5061313;28;20051;-80
2022/04/29 08:24:14;;;;;;;9.15;6.20;;;;;;;;;;5077243;28;20020;-80
2022/04/29 08:26:40;;;;;;;8.68;5.93;;;;;;;;;;5083765;28;20035;-80
2022/04/29 08:29:05;;;;;;;9.52;6.10;;;;;;;;;;5076778;28;20028;-83
2022/04/29 08:31:30;;;;;;;8.43;5.68;;;;;;;;;;5080998;28;20084;-80
2022/04/29 08:33:56;;;;;;;8.63;5.72;;;;;;;;;;5078943;28;20031;-81
2022/04/29 08:36:21;;;;;;;11.75;5.65;;;;;;;;;;5083639;28;20020;-80
2022/04/29 08:38:47;;;;;;;9.00;5.57;;;;;;;;;;5079244;28;20082;-81
2022/04/29 08:41:12;;;;;;;7.88;5.63;;;;;;;;;;5083061;28;20032;-81
2022/04/29 08:43:39;;;;;;;10.63;5.75;;;;;;;;;;5092448;28;20058;-84
2022/04/29 08:46:06;;;;;;;10.55;5.35;;;;;;;;;;5091228;28;20017;-80
2022/04/29 08:48:33;;;;;;;6.72;5.20;;;;;;;;;;5076585;28;20027;-81
2022/04/29 08:50:59;;;;;;;8.30;5.85;;;;;;;;;;5076556;28;20036;-81
2022/04/29 08:53:25;;;;;;;9.77;5.07;;;;;;;;;;5045568;28;20032;-81
2022/04/29 08:58:37;;;;;;;9.00;5.13;;;;;;;;;;5076734;28;20066;-81
2022/04/29 09:01:06;;;;;;;9.40;4.82;;;;;;;;;;5072727;28;20039;-79
2022/04/29 09:03:31;;;;;;;7.13;4.90;;;;;;;;;;5070162;28;20093;-81
2022/04/29 09:05:57;;;;;;;8.32;4.85;;;;;;;;;;5065107;28;20527;-80
2022/04/29 09:08:23;;;;;;;7.43;5.07;;;;;;;;;;5076109;28;20455;-79
2022/04/29 09:10:54;;;;;;;6.78;4.53;;;;;;;;;;5056398;28;20028;-80
2022/04/29 09:13:24;;;;;;;8.93;4.47;;;;;;;;;;5072346;28;20016;-80
2022/04/29 09:15:58;;;;;;;8.63;4.60;;;;;;;;;;5076460;28;20391;-80
2022/04/29 09:18:31;;;;;;;7.28;4.55;;;;;;;;;;5073096;28;20013;-81
2022/04/29 09:20:56;;;;;;;6.00;4.22;;;;;;;;;;5072828;28;20394;-80
2022/04/29 09:23:28;;;;;;;8.93;4.65;;;;;;;;;;5086247;28;20473;-80
2022/04/29 09:25:56;;;;;;;8.88;5.05;;;;;;;;;;5066506;28;20052;-80
2022/04/29 09:28:23;;;;;;;6.45;4.30;;;;;;;;;;5071475;28;20020;-80
2022/04/29 09:30:54;;;;;;;8.82;4.90;;;;;;;;;;5076096;28;20020;-80
2022/04/29 09:33:21;;;;;;;8.30;4.50;;;;;;;;;;5075291;28;20046;-80
2022/04/29 09:35:49;;;;;;;8.10;4.50;;;;;;;;;;5084656;28;20100;-80
2022/04/29 09:40:59;;;;;;;5.78;4.10;;;;;;;;;;5084054;28;20449;-80
2022/04/29 09:43:37;;;;;;;8.93;4.30;;;;;;;;;;5084786;28;20017;-80
2022/04/29 09:46:13;;;;;;;6.50;4.15;;;;;;;;;;5074628;28;20128;-80
2022/04/29 09:48:59;;;;;;;10.60;4.65;;;;;;;;;;5050139;28;20032;-80
2022/04/29 09:51:54;;;;;;;5.63;3.35;;;;;;;;;;5075564;28;20427;-80
2022/04/29 09:54:31;;;;;;;7.82;3.95;;;;;;;;;;5075143;28;20434;-79
2022/04/29 09:57:09;;;;;;;12.02;3.92;;;;;;;;;;5057986;28;20025;-81
2022/04/29 09:59:38;;;;;;;6.70;3.58;;;;;;;;;;5078892;28;20491;-80
2022/04/29 10:02:05;;;;;;;6.95;3.38;;;;;;;;;;5074490;28;20032;-80
2022/04/29 10:04:34;;;;;;;6.15;3.63;;;;;;;;;;5075054;28;20028;-79
2022/04/29 10:07:03;;;;;;;7.70;4.45;;;;;;;;;;5083611;28;20048;-80
2022/04/29 10:09:32;;;;;;;6.57;3.78;;;;;;;;;;5061902;28;20497;-80
2022/04/29 10:11:59;;;;;;;5.47;3.50;;;;;;;;;;5086602;28;20036;-80
2022/04/29 10:14:27;;;;;;;4.70;4.00;;;;;;;;;;5056818;28;20116;-81
2022/04/29 10:22:40;;;;;;;5.97;3.80;;;;;;;;;;5083846;28;20081;-81
2022/04/29 10:25:07;;;;;;;6.43;4.13;;;;;;;;;;5080244;28;20027;-79
2022/04/29 10:27:33;;;;;;;6.25;3.92;;;;;;;;;;5084765;28;20024;-81
2022/04/29 10:30:00;;;;;;;11.90;4.53;;;;;;;;;;5082182;28;20035;-80
2022/04/29 10:32:25;;;;;;;7.75;4.50;;;;;;;;;;5086390;28;20046;-81
2022/04/29 10:34:54;;;;;;;6.40;4.20;;;;;;;;;;5078927;28;20064;-79
2022/04/29 10:37:31;;;;;;;8.25;4.28;;;;;;;;;;5082277;28;20019;-79
2022/04/29 10:40:09;;;;;;;5.85;3.50;;;;;;;;;;5074426;28;20123;-79
2022/04/29 10:43:04;;;;;;;4.85;3.35;;;;;;;;;;5078851;28;20043;-80
2022/04/29 10:45:30;;;;;;;5.60;3.83;;;;;;;;;;5078341;28;20383;-80
2022/04/29 10:47:55;;;;;;;5.05;3.67;;;;;;;;;;5079055;28;20027;-81
2022/04/29 10:50:29;;;;;;;5.25;2.88;;;;;;;;;;5078192;28;20037;-80
2022/04/29 10:53:05;;;;;;;6.88;3.92;;;;;;;;;;5085895;28;20027;-80
2022/04/29 10:55:31;;;;;;;3.75;2.80;;;;;;;;;;5079499;28;20024;-80
2022/04/29 10:58:01;;;;;;;3.30;2.50;;;;;;;;;;5086456;28;20016;-80
2022/04/29 11:00:28;;;;;;;3.30;2.65;;;;;;;;;;5046765;28;20082;-80
2022/04/29 11:02:54;;;;;;;4.68;2.80;;;;;;;;;;5076710;28;20437;-81
2022/04/29 11:05:37;;;;;;;5.55;2.85;;;;;;;;;;5073061;28;20032;-80
2022/04/29 11:08:10;;;;;;;4.38;2.70;;;;;;;;;;5075191;28;20036;-80
2022/04/29 11:10:56;;;;;;;3.40;2.45;;;;;;;;;;5087856;28;20485;-82
2022/04/29 11:13:23;;;;;;;2.88;2.30;;;;;;;;;;5098731;28;20019;-82
2022/04/29 11:15:49;;;;;;;5.90;2.65;;;;;;;;;;5085284;28;20050;-79
2022/04/29 11:18:19;;;;;;;5.70;2.55;;;;;;;;;;5097441;28;20020;-81
2022/04/29 11:20:47;;;;;;;3.38;2.58;;;;;;;;;;5075948;28;20032;-81
2022/04/29 11:25:59;;;;;;;5.20;3.20;;;;;;;;;;5073741;28;20027;-79
2022/04/29 11:28:26;;;;;;;3.05;2.47;;;;;;;;;;5073219;28;20078;-81
2022/04/29 11:31:01;;;;;;;4.30;2.60;;;;;;;;;;5077514;28;20033;-80
2022/04/29 11:33:26;;;;;;;3.10;2.35;;;;;;;;;;5076962;28;20474;-81
2022/04/29 11:35:59;;;;;;;2.88;2.33;;;;;;;;;;5076821;28;20012;-80
2022/04/29 11:38:25;;;;;;;2.78;2.15;;;;;;;;;;5069167;28;20032;-81
2022/04/29 11:40:51;;;;;;;5.57;2.60;;;;;;;;;;5061990;28;20068;-81
2022/04/29 11:43:22;;;;;;;3.22;2.25;;;;;;;;;;5068034;28;20028;-81
2022/04/29 11:46:09;;;;;;;3.97;2.70;;;;;;;;;;5070215;28;20386;-82
2022/04/29 11:48:35;;;;;;;4.43;2.40;;;;;;;;;;5064550;28;20028;-84
2022/04/29 11:51:04;;;;;;;4.55;2.40;;;;;;;;;;5090462;28;20024;-81
2022/04/29 11:53:33;;;;;;;2.70;2.03;;;;;;;;;;5075615;28;20024;-83
2022/04/29 11:55:59;;;;;;;3.20;2.30;;;;;;;;;;5076872;28;20086;-81
2022/04/29 11:58:29;;;;;;;2.10;1.90;;;;;;;;;;5085183;28;20048;-81
2022/04/29 12:00:54;;;;;;;3.75;2.38;;;;;;;;;;5075621;28;20029;-81
2022/04/29 12:03:24;;;;;;;2.35;1.90;;;;;;;;;;5058314;28;20024;-80
2022/04/29 12:05:50;;;;;;;2.20;2.00;;;;;;;;;;5084331;28;20085;-80
2022/04/29 12:08:17;;;;;;;7.07;2.42;;;;;;;;;;5059602;28;20048;-79
2022/04/29 12:10:47;;;;;;;4.18;2.05;;;;;;;;;;5077116;28;20027;-80
2022/04/29 12:13:12;;;;;;;3.75;2.30;;;;;;;;;;5059373;28;20024;-80
2022/04/29 12:15:41;;;;;;;4.20;2.45;;;;;;;;;;5082401;28;20031;-81
2022/04/29 12:18:09;;;;;;;2.45;2.25;;;;;;;;;;5088877;28;20478;-81
2022/04/29 12:20:37;;;;;;;5.85;2.78;;;;;;;;;;5076273;28;20038;-81
2022/04/29 12:23:12;;;;;;;3.90;2.60;;;;;;;;;;5084312;28;20028;-81
2022/04/29 12:25:42;;;;;;;7.80;2.08;;;;;;;;;;5076798;28;20051;-81
2022/04/29 12:28:26;;;;;;;3.75;2.30;;;;;;;;;;5060686;28;20028;-78
2022/04/29 12:36:31;;;;;;;5.00;2.30;;;;;;;;;;5070335;28;20049;-77
2022/04/29 12:39:05;;;;;;;6.30;2.30;;;;;;;;;;5087926;28;20029;-77
2022/04/29 12:41:30;;;;;;;2.85;2.17;;;;;;;;;;5083787;28;20385;-77
2022/04/29 12:47:01;;;;;;;5.10;2.30;;;;;;;;;;5083368;28;20480;-80
2022/04/29 12:49:26;;;;;;;8.55;2.47;;;;;;;;;;5072252;28;20028;-81
2022/04/29 12:51:59;;;;;;;4.88;2.60;;;;;;;;;;5077270;28;20055;-80
2022/04/29 12:54:26;;;;;;;5.65;2.55;;;;;;;;;;5073440;28;20428;-80
2022/04/29 12:56:52;;;;;;;5.53;2.28;;;;;;;;;;5084781;28;20020;-81
2022/04/29 12:59:22;;;;;;;4.13;2.20;;;;;;;;;;5087089;28;20027;-80
2022/04/29 13:01:47;;;;;;;2.92;1.92;;;;;;;;;;5076178;28;20047;-81
2022/04/29 13:04:13;;;;;;;3.72;2.47;;;;;;;;;;5057970;28;20029;-80
2022/04/29 13:06:38;;;;;;;3.78;2.33;;;;;;;;;;5060968;28;20031;-80
2022/04/29 13:09:04;;;;;;;3.67;2.20;;;;;;;;;;5075931;28;20037;-80
2022/04/29 13:11:30;;;;;;;3.38;2.15;;;;;;;;;;5075450;28;20091;-81
2022/04/29 13:13:56;;;;;;;2.88;2.25;;;;;;;;;;5075389;28;20437;-80
2022/04/29 13:16:22;;;;;;;4.85;2.20;;;;;;;;;;5075968;28;20539;-81
2022/04/29 13:18:48;;;;;;;6.75;2.47;;;;;;;;;;5074456;28;20502;-81
2022/04/29 13:21:15;;;;;;;6.65;2.42;;;;;;;;;;5075583;28;20029;-80
2022/04/29 13:23:42;;;;;;;4.45;2.25;;;;;;;;;;5075827;28;20020;-81
2022/04/29 13:26:08;;;;;;;2.80;2.50;;;;;;;;;;5073915;28;20078;-80
2022/04/29 13:28:35;;;;;;;3.83;2.00;;;;;;;;;;5046497;28;20052;-79
2022/04/29 13:31:02;;;;;;;3.72;2.10;;;;;;;;;;5076242;28;20024;-82
2022/04/29 13:33:28;;;;;;;4.57;2.22;;;;;;;;;;5076792;28;20039;-82
2022/04/29 13:35:57;;;;;;;2.63;2.22;;;;;;;;;;5081572;28;20024;-81
2022/04/29 13:38:23;;;;;;;3.65;2.22;;;;;;;;;;5086344;28;20528;-82
2022/04/29 13:40:50;;;;;;;2.20;1.80;;;;;;;;;;5087253;28;20100;-81
2022/04/29 13:43:16;;;;;;;5.45;2.22;;;;;;;;;;5059134;28;20098;-80
2022/04/29 13:45:42;;;;;;;3.30;2.13;;;;;;;;;;5079793;28;20432;-81
2022/04/29 13:48:08;;;;;;;6.40;2.33;;;;;;;;;;5083384;28;20117;-81
2022/04/29 13:50:34;;;;;;;4.47;2.33;;;;;;;;;;5090240;28;20020;-82
2022/04/29 13:53:11;;;;;;;4.47;2.38;;;;;;;;;;5084830;28;20020;-81
2022/04/29 13:55:50;;;;;;;4.18;2.90;;;;;;;;;;5079580;28;20025;-81
2022/04/29 13:58:17;;;;;;;4.95;3.28;;;;;;;;;;5089090;28;20028;-80
2022/04/29 14:00:44;;;;;;;4.63;2.88;;;;;;;;;;5084915;28;20028;-80
2022/04/29 14:03:11;;;;;;;4.22;2.35;;;;;;;;;;5062888;28;20016;-82
2022/04/29 14:05:36;;;;;;;2.58;2.38;;;;;;;;;;5086271;28;20086;-81
2022/04/29 14:08:01;;;;;;;4.80;2.30;;;;;;;;;;5084888;28;20040;-81
2022/04/29 14:10:27;;;;;;;3.78;2.42;;;;;;;;;;5096428;28;20032;-81
2022/04/29 14:12:53;;;;;;;2.72;2.13;;;;;;;;;;5082979;28;20024;-81
2022/04/29 14:15:18;;;;;;;4.00;2.42;;;;;;;;;;5080394;28;20020;-81
2022/04/29 14:17:44;;;;;;;3.83;2.55;;;;;;;;;;5074814;28;20044;-81
2022/04/29 14:20:11;;;;;;;5.15;2.50;;;;;;;;;;5092830;28;20052;-80
2022/04/29 14:22:40;;;;;;;3.40;2.42;;;;;;;;;;5093312;28;20029;-79
2022/04/29 14:25:07;;;;;;;2.45;2.20;;;;;;;;;;5095506;28;20040;-80
2022/04/29 14:27:33;;;;;;;3.50;2.70;;;;;;;;;;5102093;28;20028;-79
2022/04/29 14:29:59;;;;;;;2.72;2.45;;;;;;;;;;5098694;28;20497;-79
2022/04/29 14:32:25;;;;;;;5.63;2.30;;;;;;;;;;5096473;28;20036;-84
2022/04/29 14:34:50;;;;;;;4.40;2.35;;;;;;;;;;5096238;28;20130;-82
2022/04/29 14:37:16;;;;;;;3.65;2.40;;;;;;;;;;5094028;28;20028;-81
2022/04/29 14:39:42;;;;;;;3.95;2.60;;;;;;;;;;5083892;28;20043;-84
2022/04/29 14:42:08;;;;;;;3.90;2.88;;;;;;;;;;5082949;28;20028;-84
2022/04/29 14:44:36;;;;;;;6.63;2.70;;;;;;;;;;5078222;28;20165;-84
2022/04/29 14:47:02;;;;;;;5.95;2.65;;;;;;;;;;5084130;28;20040;-83
2022/04/29 14:49:27;;;;;;;7.72;2.47;;;;;;;;;;5053308;28;20025;-83
2022/04/29 14:51:54;;;;;;;4.95;2.58;;;;;;;;;;5044298;28;20083;-83
2022/04/29 14:54:20;;;;;;;4.97;2.60;;;;;;;;;;5079080;28;20032;-82
2022/04/29 14:56:45;;;;;;;3.83;2.60;;;;;;;;;;5087173;28;20069;-81
2022/04/29 14:59:11;;;;;;;5.97;2.50;;;;;;;;;;5092193;28;20028;-83
2022/04/29 15:01:37;;;;;;;6.38;2.40;;;;;;;;;;5083307;28;20027;-82
2022/04/29 15:04:04;;;;;;;3.00;2.50;;;;;;;;;;5084718;28;20028;-82
2022/04/29 15:06:31;;;;;;;3.88;2.53;;;;;;;;;;5085771;28;20473;-81
2022/04/29 15:17:18;;;;;;;5.22;2.30;;;;;;;;;;5079405;28;20046;-81
2022/04/29 15:19:45;;;;;;;4.07;2.40;;;;;;;;;;5066999;28;20040;-81
2022/04/29 15:22:11;;;;;;;2.45;2.25;;;;;;;;;;5071955;28;20106;-81
2022/04/29 15:24:37;;;;;;;8.88;2.47;;;;;;;;;;5076053;28;20437;-81